Eureka, CA

11:19 AM PST die 13o February, anno 2016 (GMT -0800)
Rosewood | | Change Station
CLOSE
Current Station
Personal Weather Stations
Location: Eureka, CA
Elevation: 141 ft
Nearby Weather Stations

Elev 141 ft 40.77 °N, 124.16 °W | Updated 6 seconds ago

Partialiter Nubila
Partialiter Nubila
56.3 °F
Feels Like 56.3 °F
N
0.0
Ventus Variabilis Ventus from Magis Zephyrus quam Aquilo
Gusts 0.0 mph

Hodie
High -- | Low -- °F
--% Chance of Precip.
Yesterday
High -- | Low -- °F
Precip. -- in
Pressio 30.42 in
Visibilitas 10.0 milia passuum
Clouds Serena
Frigus in quo Ros apparet 50 °F
Umor 79%
Rainfall 0.00 in
Snow Depth Not available.
7:13 AM 5:48 PM
Waxing Crescent, 33% visible
METAR KACV 131853Z AUTO 00000KT 10SM CLR 12/09 A3040 RMK AO2 SLP301 T01170094
Pressio 30.42 in
Visibilitas 10.0 milia passuum
Clouds Serena
Frigus in quo Ros apparet 50 °F
Umor 79%
Rainfall 0.00 in
Snow Depth Not available.
7:13 AM 5:48 PM
Waxing Crescent, 33% visible
METAR KACV 131853Z AUTO 00000KT 10SM CLR 12/09 A3040 RMK AO2 SLP301 T01170094

10-Day Weather Forecast

Almanac

Astronomy

Feb. 13, 2016 Rise Set
Actual Time
Civil Twilight
Nautical Twilight
Astronomical Twilight
Moon
Length Of Visible Light
Length of Day
Tomorrow will be .
, % of the Moon is Illuminated

Today's Extremes

State Highs State Lows

Community

WunderPhotos

Upload Photos

1,892,642 photos uploaded!

WunderBlog® & News

Nearby

Air Quality

  Air Quality AQ Index Pollutant
Not available.

Snow Depth

Station Depth Elevation

Earthquake Activity

City Distance Mag. Time & Date
Minimum magnitude displayed is 2.5.

Coastal Water Temperatures

Locus Calor

Stations

Nearby Weather Stations

Station Location Temp Frigus Venti Frigus in quo Ros apparet Umor Ventus Precip. Elev Renovata Type
                   

Watches & Warnings

There are currently no watches in effect.